Hunt, Illinois
Current Conditions -  °F | °C
As of 5:55 PM on Friday 21 Nov 2014 (Local Time) from KRSV Reporting Station
Clear Clear  
Wind Chill: 26°   Ceiling: Unl
Heat Index: 32°   Visibility: 10mi
Dew Point: 17°   Wind: 6mph
Humidity: 53%   Direction: 130°SE
Pressure: 30.39"   Gusts: NA
Location:  38.9751°N, 88.0102°W
Report Text: KRSV 212355Z AUTO 13005KT 10SM CLR 00/M09 A3039 RMK AO2 T10011086 10036 21001
Loading
Personal Weather Stations






























Interactive Weather Map New forecast layout! Learn more

10-Day Weather Forecast

Advertisements
Track Severe Weather on mobile